createdAt,value
2018-11-14T00:02:09.489Z,58.7
2018-11-14T00:07:17.877Z,58.4
2018-11-14T00:12:26.136Z,58.4
2018-11-14T00:17:34.483Z,58.5
2018-11-14T00:22:42.811Z,58.9
2018-11-14T00:27:51.165Z,58.9
2018-11-14T00:32:59.567Z,58.2
2018-11-14T00:38:07.904Z,58.7
2018-11-14T00:43:16.372Z,58.7
2018-11-14T00:48:24.715Z,58.9
2018-11-14T00:53:33.065Z,59.3
2018-11-14T00:58:41.347Z,59.3
2018-11-14T01:03:49.784Z,59.3
2018-11-14T01:08:58.195Z,59.7
2018-11-14T01:14:06.522Z,59.5
2018-11-14T01:19:15.019Z,59.8
2018-11-14T01:24:23.433Z,59.6
2018-11-14T01:29:31.756Z,59.8
2018-11-14T01:34:40.291Z,60.4
2018-11-14T01:44:57.082Z,59.9
2018-11-14T01:50:05.509Z,59.9
2018-11-14T01:55:13.925Z,60.1
2018-11-14T02:00:22.272Z,60.5
2018-11-14T02:10:39.261Z,60.6
2018-11-14T02:15:47.668Z,60.9
2018-11-14T02:20:56.189Z,61.6
2018-11-14T02:26:04.572Z,61.9
2018-11-14T02:31:13.033Z,62.2
2018-11-14T02:36:21.531Z,62.2
2018-11-14T02:41:30.071Z,62.3
2018-11-14T02:46:38.550Z,62.7
2018-11-14T02:51:47.027Z,62.9
2018-11-14T02:56:55.512Z,62.8
2018-11-14T03:02:03.972Z,63
2018-11-14T03:07:12.392Z,62.2
2018-11-14T03:12:20.806Z,62.1
2018-11-14T03:17:29.213Z,62.3
2018-11-14T03:27:46.031Z,62.3
2018-11-14T03:32:54.290Z,61.9
2018-11-14T03:38:02.868Z,61.6
2018-11-14T03:43:11.147Z,61.7
2018-11-14T03:48:19.520Z,61.5
2018-11-14T03:53:27.945Z,61.5
2018-11-14T03:58:36.324Z,61.7
2018-11-14T04:03:44.671Z,61.2
2018-11-14T04:08:53.018Z,60.5
2018-11-14T04:14:01.397Z,59.9
2018-11-14T04:19:09.670Z,59.9
2018-11-14T04:24:18.116Z,59.9
2018-11-14T04:29:26.397Z,60.3
2018-11-14T04:34:34.829Z,59.9
2018-11-14T04:39:43.175Z,59.5
2018-11-14T04:44:51.542Z,59.5
2018-11-14T04:49:59.944Z,59.3
2018-11-14T04:55:08.152Z,58.6
2018-11-14T05:00:16.593Z,58.7
2018-11-14T05:10:33.236Z,58.2
2018-11-14T05:15:41.565Z,58.1
2018-11-14T05:20:49.890Z,58.1
2018-11-14T05:25:58.227Z,58.2
2018-11-14T05:41:23.254Z,58.1
2018-11-14T05:46:31.621Z,58.2
2018-11-14T05:51:39.930Z,58
2018-11-14T06:01:56.680Z,58.1
2018-11-14T06:07:05.108Z,58.5
2018-11-14T06:12:13.444Z,58.5
2018-11-14T06:17:21.854Z,58.6
2018-11-14T06:22:30.197Z,58.8
2018-11-14T06:27:38.605Z,58.6
2018-11-14T06:32:46.810Z,58.4
2018-11-14T06:43:03.582Z,58.1
2018-11-14T06:53:20.111Z,58.1
2018-11-14T06:58:28.541Z,58.1
2018-11-14T07:08:45.261Z,58.4
2018-11-14T07:19:01.879Z,58.3
2018-11-14T07:29:18.487Z,58.1
2018-11-14T07:34:26.734Z,57.8
2018-11-14T07:39:35.112Z,57
2018-11-14T07:49:51.650Z,56.4
2018-11-14T07:54:59.842Z,54.9
2018-11-14T08:05:16.234Z,55.4
2018-11-14T08:10:24.375Z,54.5
2018-11-14T08:20:40.538Z,54.2
2018-11-14T08:25:48.687Z,53.1
2018-11-14T08:41:12.775Z,52.7
2018-11-14T08:51:28.819Z,50.6
2018-11-14T08:56:36.692Z,49.4
2018-11-14T09:01:44.595Z,50.3
2018-11-14T09:06:52.343Z,49.8
2018-11-14T09:12:00.195Z,49.4
2018-11-14T09:17:07.784Z,47.4
2018-11-14T09:22:17.737Z,44.9
2018-11-14T09:32:30.438Z,42.3
2018-11-14T09:37:37.720Z,41.2
2018-11-14T09:42:45.101Z,39.7
2018-11-14T09:52:59.310Z,36.6
2018-11-14T10:03:13.587Z,35.8
2018-11-14T10:08:20.406Z,35
2018-11-14T10:18:34.142Z,33.4
2018-11-14T10:23:41.093Z,32.9
2018-11-14T10:28:47.942Z,31.7
2018-11-14T10:33:54.798Z,31.4
2018-11-14T10:39:01.556Z,31.6
2018-11-14T10:44:08.461Z,31
2018-11-14T10:49:15.253Z,30.8
2018-11-14T10:54:22.109Z,30.3
2018-11-14T10:59:28.884Z,30.1
2018-11-14T11:04:35.717Z,30.2
2018-11-14T11:09:42.386Z,29.9
2018-11-14T11:14:49.121Z,29.9
2018-11-14T11:25:02.755Z,29.4
2018-11-14T11:30:09.392Z,29.6
2018-11-14T11:35:16.268Z,30
2018-11-14T11:45:29.805Z,30
2018-11-14T11:50:36.753Z,29.7
2018-11-14T12:00:50.419Z,31.2
2018-11-14T12:05:57.394Z,31.5
2018-11-14T12:16:11.212Z,31.7
2018-11-14T12:26:25.017Z,32.2
2018-11-14T12:31:32.047Z,32.5
2018-11-14T12:36:39.004Z,32.4
2018-11-14T12:41:45.908Z,32.5
2018-11-14T12:46:52.979Z,32.1
2018-11-14T12:57:06.975Z,34
2018-11-14T13:02:13.993Z,34.2
2018-11-14T13:07:21.010Z,32.8
2018-11-14T13:17:35.157Z,33.7
2018-11-14T13:22:42.211Z,35.1
2018-11-14T13:27:49.143Z,35.5
2018-11-14T13:32:56.283Z,35.9
2018-11-14T13:43:10.545Z,36.7
2018-11-14T13:48:17.630Z,37.2
2018-11-14T13:53:24.892Z,38
2018-11-14T13:58:32.117Z,38.5
2018-11-14T14:03:39.373Z,39.5
2018-11-14T14:08:46.657Z,40.1
2018-11-14T14:13:53.891Z,40.5
2018-11-14T14:19:01.354Z,41.1
2018-11-14T14:24:08.730Z,41.4
2018-11-14T14:29:16.193Z,42.5
2018-11-14T14:34:23.557Z,43.5
2018-11-14T14:39:31.005Z,43.6
2018-11-14T14:44:38.482Z,43.7
2018-11-14T14:49:45.966Z,43.9
2018-11-14T14:54:53.537Z,44.7
2018-11-14T15:00:01.063Z,44.4
2018-11-14T15:10:16.282Z,45.3
2018-11-14T15:15:23.869Z,45.2
2018-11-14T15:25:39.183Z,45.3
2018-11-14T15:30:46.848Z,45.3
2018-11-14T15:35:54.631Z,46.4
2018-11-14T15:41:02.367Z,46
2018-11-14T15:46:10.113Z,46.8
2018-11-14T15:51:21.112Z,46.5
2018-11-14T15:56:25.664Z,46.8
2018-11-14T16:01:33.420Z,46.9
2018-11-14T16:06:41.235Z,46.9
2018-11-14T16:11:48.963Z,47.2
2018-11-14T16:16:56.826Z,47.6
2018-11-14T16:22:04.878Z,47.2
2018-11-14T16:27:12.586Z,47.8
2018-11-14T16:32:20.580Z,47.7
2018-11-14T16:37:28.508Z,47.9
2018-11-14T16:42:36.487Z,47.5
2018-11-14T16:47:44.387Z,47.6
2018-11-14T16:52:52.251Z,48.5
2018-11-14T16:58:00.333Z,48.5
2018-11-14T17:13:24.417Z,49.6
2018-11-14T17:23:40.533Z,49.6
2018-11-14T17:28:48.559Z,49.9
2018-11-14T17:33:56.765Z,50
2018-11-14T17:49:20.957Z,51
2018-11-14T17:54:29.121Z,50.4
2018-11-14T17:59:37.205Z,50.1
2018-11-14T18:04:45.349Z,50.4
2018-11-14T18:09:53.484Z,51
2018-11-14T18:15:01.769Z,51.4
2018-11-14T18:20:09.803Z,51.4
2018-11-14T18:25:17.968Z,51.1
2018-11-14T18:30:26.147Z,51.8
2018-11-14T18:35:34.315Z,50.9
2018-11-14T18:40:42.514Z,51
2018-11-14T18:50:58.897Z,51.8
2018-11-14T18:56:07.205Z,52.1
2018-11-14T19:01:15.493Z,51.8
2018-11-14T19:06:23.697Z,52.1
2018-11-14T19:11:31.935Z,52.4
2018-11-14T19:16:40.244Z,52.5
2018-11-14T19:21:48.476Z,52.7
2018-11-14T19:32:05.040Z,53
2018-11-14T19:37:13.325Z,52.8
2018-11-14T19:42:21.582Z,53
2018-11-14T19:47:29.875Z,53.2
2018-11-14T19:52:38.157Z,53.1
2018-11-14T19:57:46.357Z,53.1
2018-11-14T20:02:54.771Z,53
2018-11-14T20:08:03.022Z,52.5
2018-11-14T20:13:11.334Z,52.7
2018-11-14T20:18:19.630Z,52.9
2018-11-14T20:23:27.919Z,52.7
2018-11-14T20:33:44.576Z,52.9
2018-11-14T20:38:52.933Z,52.9
2018-11-14T20:44:01.309Z,53.2
2018-11-14T20:49:09.621Z,53.3
2018-11-14T20:54:17.972Z,53.6
2018-11-14T20:59:26.336Z,53.3
2018-11-14T21:04:34.692Z,53.5
2018-11-14T21:09:43.119Z,53.5
2018-11-14T21:14:51.538Z,53.5
2018-11-14T21:19:59.860Z,53.6
2018-11-14T21:25:08.300Z,53.6
2018-11-14T21:30:16.554Z,53.6
2018-11-14T21:35:25.019Z,53.6
2018-11-14T21:45:41.835Z,53.3
2018-11-14T21:50:50.162Z,53.6
2018-11-14T21:55:58.664Z,53.4
2018-11-14T22:01:07.103Z,53.6
2018-11-14T22:06:15.555Z,53.5
2018-11-14T22:16:32.410Z,53.4
2018-11-14T22:21:40.841Z,53.9
2018-11-14T22:26:49.281Z,53.8
2018-11-14T22:31:59.673Z,53.8
2018-11-14T22:37:06.135Z,53.9
2018-11-14T22:47:23.157Z,53.4
2018-11-14T22:52:31.584Z,54.2
2018-11-14T22:57:40.111Z,53.6
2018-11-14T23:02:48.531Z,53.7
2018-11-14T23:07:57.131Z,53.9
2018-11-14T23:13:05.586Z,53.7
2018-11-14T23:18:14.083Z,53.8
2018-11-14T23:23:22.488Z,53.4
2018-11-14T23:28:31.040Z,53.7
2018-11-14T23:33:39.539Z,53.2
2018-11-14T23:38:48.036Z,53.2
2018-11-14T23:43:56.560Z,54
2018-11-14T23:49:05.088Z,53.8
2018-11-14T23:59:22.149Z,54.1
